Time;durP1;ratioP1;P1;durP2;ratioP2;P2;SDS_P1;SDS_P2;PMS_P1;PMS_P2;Temp;Humidity;BMP_temperature;BMP_pressure;BME280_temperature;BME280_humidity;BME280_pressure;Samples;Min_cycle;Max_cycle;Signal;HPM_P1;HPM_P2
2023/01/31 00:03:06;;;;;;;33.80;19.33;;;;;;;0.84;83.74;97278.00;10329874;28;20036;-48
2023/01/31 00:08:05;;;;;;;38.42;20.38;;;;;;;0.85;83.31;97249.06;10328917;28;20479;-50
2023/01/31 00:13:04;;;;;;;41.58;22.77;;;;;;;0.87;83.19;97244.88;10329531;28;20037;-49
2023/01/31 00:18:03;;;;;;;35.72;18.33;;;;;;;0.84;83.65;97225.22;10326705;28;20080;-48
2023/01/31 00:23:01;;;;;;;41.88;19.55;;;;;;;0.36;84.81;97229.75;10327545;28;20080;-47
2023/01/31 00:28:00;;;;;;;48.90;26.67;;;;;;;0.41;85.09;97190.81;10327989;28;20138;-50
2023/01/31 00:32:59;;;;;;;60.03;33.05;;;;;;;0.12;84.35;97130.38;10336920;28;20077;-50
2023/01/31 00:37:59;;;;;;;36.63;19.40;;;;;;;0.56;84.51;97200.59;10336963;28;20029;-48
2023/01/31 00:42:58;;;;;;;39.28;21.75;;;;;;;0.68;84.13;97200.94;10338214;28;20072;-49
2023/01/31 00:47:57;;;;;;;49.92;24.92;;;;;;;0.64;83.45;97208.50;10337073;28;20040;-48
2023/01/31 00:52:56;;;;;;;57.70;31.80;;;;;;;0.53;83.73;97199.66;10336597;28;20037;-47
2023/01/31 00:57:55;;;;;;;49.97;25.70;;;;;;;0.53;83.55;97182.63;10335270;28;20116;-50
2023/01/31 01:02:54;;;;;;;40.08;21.30;;;;;;;0.73;83.44;97178.09;10334271;28;20033;-47
2023/01/31 01:07:53;;;;;;;36.22;20.42;;;;;;;0.96;83.52;97206.81;10336292;28;20041;-48
2023/01/31 01:12:52;;;;;;;37.97;20.08;;;;;;;1.10;83.07;97194.44;10336073;28;20536;-48
2023/01/31 01:17:51;;;;;;;;;;;;;;;1.15;82.55;97194.56;10336167;28;20072;-49
2023/01/31 01:22:50;;;;;;;43.53;22.63;;;;;;;1.20;82.14;97191.31;10335918;28;19948;-48
2023/01/31 01:27:49;;;;;;;55.83;27.98;;;;;;;0.67;81.21;97131.97;10334575;28;20109;-50
2023/01/31 01:32:48;;;;;;;50.47;27.02;;;;;;;0.98;81.15;97189.84;10335332;28;20071;-47
2023/01/31 01:37:47;;;;;;;39.58;17.98;;;;;;;0.19;82.19;97203.72;10334910;28;20420;-48
2023/01/31 01:42:46;;;;;;;63.65;34.92;;;;;;;0.02;82.46;97164.97;10334233;28;20112;-47
2023/01/31 01:47:58;;;;;;;54.63;28.38;;;;;;;-0.25;83.52;97181.13;10332480;28;20029;-47
2023/01/31 01:53:05;;;;;;;54.45;28.73;;;;;;;-0.03;83.76;97197.97;10334276;28;20084;-48
2023/01/31 01:58:12;;;;;;;59.75;29.00;;;;;;;0.17;83.13;97197.72;10334045;28;20248;-50
2023/01/31 02:03:12;;;;;;;49.13;24.83;;;;;;;0.26;83.15;97181.03;10314719;28;20080;-48
2023/01/31 02:08:14;;;;;;;48.97;25.88;;;;;;;0.31;82.82;97178.59;10326176;28;20088;-47
2023/01/31 02:13:14;;;;;;;59.42;29.75;;;;;;;0.21;82.89;97179.13;10327311;28;20060;-48
2023/01/31 02:18:14;;;;;;;57.15;29.58;;;;;;;0.23;82.88;97180.91;10331204;28;20121;-48
2023/01/31 02:23:42;;;;;;;59.45;30.63;;;;;;;0.18;82.70;97192.66;10330827;28;20449;-47
2023/01/31 02:29:18;;;;;;;66.18;34.15;;;;;;;0.13;82.90;97204.44;10322930;28;20072;-47
2023/01/31 02:34:20;;;;;;;60.20;31.08;;;;;;;-0.08;83.24;97214.81;10329477;28;20430;-47
2023/01/31 02:39:34;;;;;;;79.25;40.70;;;;;;;-0.28;83.61;97229.47;10330237;28;20076;-49
2023/01/31 02:45:00;;;;;;;75.50;37.30;;;;;;;-0.25;84.09;97237.22;10329065;28;20148;-47
2023/01/31 02:50:18;;;;;;;78.90;40.92;;;;;;;-0.22;83.94;97252.63;10325466;28;20412;-45
2023/01/31 03:00:56;;;;;;;147.57;83.45;;;;;;;-0.56;85.19;97270.13;10326994;28;20120;-47
2023/01/31 03:06:13;;;;;;;84.63;42.38;;;;;;;-0.45;85.83;97307.06;10327817;28;20456;-48
2023/01/31 03:11:12;;;;;;;64.47;30.38;;;;;;;-0.24;85.17;97309.47;10326412;28;20152;-50
2023/01/31 03:17:30;;;;;;;53.92;25.75;;;;;;;-0.15;85.10;97320.00;10326142;28;20122;-48
2023/01/31 03:22:34;;;;;;;60.13;28.45;;;;;;;0.01;84.92;97321.38;10309517;28;20065;-50
2023/01/31 03:27:34;;;;;;;55.88;26.77;;;;;;;0.16;84.38;97326.97;10328347;28;20053;-48
2023/01/31 03:32:41;;;;;;;61.90;30.70;;;;;;;0.24;84.03;97305.13;10325789;28;20128;-50
2023/01/31 03:37:49;;;;;;;68.15;35.10;;;;;;;0.14;83.74;97304.78;10324722;28;20179;-48
2023/01/31 03:43:01;;;;;;;60.05;31.50;;;;;;;0.10;84.18;97300.38;10325663;28;20503;-47
2023/01/31 03:48:02;;;;;;;50.13;25.17;;;;;;;0.10;83.87;97291.06;10325972;28;20061;-48
2023/01/31 03:53:26;;;;;;;46.60;23.80;;;;;;;-0.01;83.69;97287.31;10325624;28;20136;-47
2023/01/31 03:58:31;;;;;;;51.80;27.33;;;;;;;-0.28;84.61;97294.88;10322733;28;20061;-50
2023/01/31 04:03:38;;;;;;;53.38;27.08;;;;;;;-0.43;84.90;97282.50;10326574;28;20121;-50
2023/01/31 04:08:38;;;;;;;58.08;29.95;;;;;;;-0.57;84.65;97259.09;10326435;28;20071;-47
2023/01/31 04:13:37;;;;;;;63.75;34.67;;;;;;;-0.20;84.36;97314.75;10325594;28;20140;-49
2023/01/31 04:18:36;;;;;;;71.85;33.38;;;;;;;-0.08;84.20;97321.06;10326472;28;20067;-48
2023/01/31 04:23:35;;;;;;;61.80;31.27;;;;;;;-0.13;84.80;97315.81;10326403;28;20041;-49
2023/01/31 04:28:34;;;;;;;;;;;;;;;-0.01;84.72;97336.63;10326441;28;20041;-49
2023/01/31 04:33:33;;;;;;;68.28;35.13;;;;;;;-0.09;85.14;97324.41;10324911;28;19983;-50
2023/01/31 04:38:32;;;;;;;58.80;29.88;;;;;;;-0.06;85.09;97339.84;10319493;28;20057;-49
2023/01/31 04:43:31;;;;;;;57.05;28.85;;;;;;;0.02;84.79;97334.16;10325379;28;20044;-49
2023/01/31 04:48:30;;;;;;;;;;;;;;;0.16;84.40;97334.63;10325735;28;20034;-48
2023/01/31 04:53:29;;;;;;;74.03;34.90;;;;;;;0.26;84.58;97340.91;10326267;28;19913;-48
2023/01/31 04:58:28;;;;;;;130.32;47.22;;;;;;;0.33;83.93;97324.09;10323372;28;20423;-48
2023/01/31 05:03:26;;;;;;;;;;;;;;;0.29;83.66;97318.06;10325885;28;20748;-48
2023/01/31 05:08:25;;;;;;;250.98;81.53;;;;;;;0.27;83.50;97306.91;10325312;28;20440;-48
2023/01/31 05:13:25;;;;;;;59.60;31.95;;;;;;;0.35;82.74;97323.31;10326160;28;20724;-49
2023/01/31 05:18:24;;;;;;;92.45;44.28;;;;;;;0.24;82.88;97350.19;10329296;28;20132;-48
2023/01/31 05:23:23;;;;;;;77.63;44.35;;;;;;;0.12;83.59;97347.22;10332859;28;20152;-48
2023/01/31 05:28:24;;;;;;;75.53;39.33;;;;;;;0.14;83.74;97346.47;10333720;28;20077;-47
2023/01/31 05:33:26;;;;;;;108.72;59.47;;;;;;;-0.03;83.99;97375.66;10331113;28;20076;-48
2023/01/31 05:38:25;;;;;;;84.38;45.78;;;;;;;0.03;83.76;97366.53;10334575;28;20080;-47
2023/01/31 05:43:24;;;;;;;74.38;42.17;;;;;;;0.12;83.78;97372.75;10335049;28;20072;-48
2023/01/31 05:48:23;;;;;;;77.32;41.00;;;;;;;0.17;83.47;97374.66;10320269;28;20049;-47
2023/01/31 05:53:23;;;;;;;97.82;55.25;;;;;;;-0.16;83.28;97328.44;10333646;28;20025;-47
2023/01/31 05:58:22;;;;;;;133.55;71.82;;;;;;;0.16;83.48;97389.91;10326664;28;20084;-48
2023/01/31 06:03:21;;;;;;;119.60;66.45;;;;;;;0.24;83.13;97384.25;10329987;28;20026;-48
2023/01/31 06:08:20;;;;;;;98.53;52.95;;;;;;;0.38;83.20;97381.25;10329011;28;20029;-47
2023/01/31 06:13:19;;;;;;;164.10;81.07;;;;;;;0.41;82.94;97377.13;10331774;28;20041;-50
2023/01/31 06:18:18;;;;;;;74.35;40.25;;;;;;;0.45;82.59;97375.53;9440853;28;10000958;-49
2023/01/31 06:23:17;;;;;;;72.80;39.60;;;;;;;0.50;82.60;97385.91;10331295;28;20039;-47
2023/01/31 06:28:17;;;;;;;131.27;74.18;;;;;;;0.50;82.11;97396.09;10327530;28;20073;-49
2023/01/31 06:33:16;;;;;;;169.80;89.47;;;;;;;0.51;82.49;97395.31;10330261;28;20552;-49
2023/01/31 06:38:15;;;;;;;154.80;85.25;;;;;;;0.62;82.29;97383.75;10329596;28;20817;-47
2023/01/31 06:43:14;;;;;;;98.35;53.40;;;;;;;0.60;82.32;97380.28;10326817;28;20788;-50
2023/01/31 06:48:14;;;;;;;135.27;83.38;;;;;;;0.07;83.46;97394.69;10329454;28;20791;-49
2023/01/31 06:53:13;;;;;;;125.68;65.30;;;;;;;0.38;83.40;97388.91;10330104;28;20092;-47
2023/01/31 06:58:12;;;;;;;83.68;49.10;;;;;;;0.36;82.86;97401.66;10328582;28;20123;-48
2023/01/31 07:03:12;;;;;;;;;;;;;;;0.53;82.29;97394.53;10332069;28;20072;-48
2023/01/31 07:08:11;;;;;;;83.45;46.83;;;;;;;0.58;82.12;97389.56;10330484;28;19952;-47
2023/01/31 07:13:10;;;;;;;87.20;50.40;;;;;;;0.61;82.07;97403.28;10331096;28;20037;-47
2023/01/31 07:18:09;;;;;;;55.90;31.20;;;;;;;0.88;82.05;97398.19;10327654;28;20461;-49
2023/01/31 07:23:08;;;;;;;;;;;;;;;1.07;82.31;97409.00;10327388;28;20080;-48
2023/01/31 07:28:07;;;;;;;81.18;41.65;;;;;;;1.42;82.77;97404.06;10324594;28;20005;-49
2023/01/31 07:33:06;;;;;;;58.67;34.55;;;;;;;1.66;80.75;97399.63;10329024;28;20099;-49
2023/01/31 07:38:05;;;;;;;80.90;45.35;;;;;;;1.79;80.78;97357.38;10329542;28;20073;-49
2023/01/31 07:43:03;;;;;;;84.40;48.90;;;;;;;2.11;78.92;97391.50;10329390;28;20139;-50
2023/01/31 07:48:03;;;;;;;85.55;54.72;;;;;;;2.15;78.49;97398.41;10329116;28;20116;-49
2023/01/31 07:53:02;;;;;;;68.53;40.97;;;;;;;2.11;77.10;97409.41;10329606;28;20080;-49
2023/01/31 07:58:01;;;;;;;;;;;;;;;2.10;77.61;97412.78;10329332;28;20459;-50
2023/01/31 08:08:17;;;;;;;61.90;37.85;;;;;;;2.59;77.68;97405.50;10327019;28;20496;-48
2023/01/31 08:13:16;;;;;;;72.65;44.00;;;;;;;2.72;76.12;97409.22;10326534;28;20045;-49
2023/01/31 08:18:14;;;;;;;79.82;47.45;;;;;;;2.79;77.11;97408.53;10325635;28;20404;-50
2023/01/31 08:23:13;;;;;;;81.32;48.72;;;;;;;2.90;75.89;97385.72;10329412;28;20136;-49
2023/01/31 08:28:12;;;;;;;97.65;59.42;;;;;;;3.14;74.27;97403.34;10328859;28;20324;-48
2023/01/31 08:33:11;;;;;;;86.78;56.90;;;;;;;3.28;74.48;97399.41;10324287;28;20548;-49
2023/01/31 08:38:10;;;;;;;95.32;58.97;;;;;;;3.19;73.24;97366.75;10327877;28;20582;-49
2023/01/31 08:43:09;;;;;;;98.95;60.00;;;;;;;3.32;73.51;97369.56;10328265;28;20047;-48
2023/01/31 08:48:08;;;;;;;140.68;81.22;;;;;;;3.71;74.50;97402.88;10324245;28;20483;-48
2023/01/31 08:53:08;;;;;;;111.97;70.55;;;;;;;3.94;73.91;97407.59;10333600;28;20037;-49
2023/01/31 08:58:07;;;;;;;117.60;75.55;;;;;;;4.23;73.26;97409.00;10335759;28;20073;-50
2023/01/31 09:03:05;;;;;;;90.43;58.28;;;;;;;4.54;71.90;97394.13;10336775;28;20060;-47
2023/01/31 09:08:04;;;;;;;84.65;51.88;;;;;;;4.74;68.98;97393.63;10334773;28;20149;-50
2023/01/31 09:13:03;;;;;;;74.25;45.67;;;;;;;4.99;69.03;97400.88;10335505;28;20044;-47
2023/01/31 09:18:04;;;;;;;40.03;25.38;;;;;;;5.29;68.04;97399.59;10334861;28;20775;-49
2023/01/31 09:23:03;;;;;;;42.22;26.00;;;;;;;5.39;67.10;97380.91;10336467;28;20080;-48
2023/01/31 09:28:02;;;;;;;;;;;;;;;5.89;65.18;97398.69;10333018;28;20064;-48
2023/01/31 09:33:01;;;;;;;23.67;14.70;;;;;;;5.82;63.28;97336.81;10332669;28;20315;-50
2023/01/31 09:37:59;;;;;;;28.52;17.27;;;;;;;6.36;62.54;97397.47;10332606;28;20042;-48
2023/01/31 09:43:01;;;;;;;51.38;31.58;;;;;;;6.43;60.80;97400.97;10335350;28;20033;-48
2023/01/31 09:48:01;;;;;;;33.03;16.90;;;;;;;6.32;59.63;97355.31;10331937;28;20531;-48
2023/01/31 09:53:02;;;;;;;19.67;11.68;;;;;;;6.09;55.45;97396.31;10329347;28;20132;-48
2023/01/31 09:58:37;;;;;;;14.48;10.60;;;;;;;5.76;53.89;97386.50;10328274;28;20063;-49
2023/01/31 10:04:11;;;;;;;10.57;6.78;;;;;;;5.49;54.85;97392.19;10326816;28;20461;-48
2023/01/31 10:09:22;;;;;;;20.42;12.70;;;;;;;5.05;53.09;97385.56;10322973;28;20088;-48
2023/01/31 10:14:52;;;;;;;11.00;6.30;;;;;;;5.16;53.59;97382.25;10316091;28;20492;-49
2023/01/31 10:20:01;;;;;;;13.15;9.95;;;;;;;5.30;53.33;97386.78;10323324;28;20133;-50
2023/01/31 10:25:25;;;;;;;21.88;16.30;;;;;;;5.35;54.68;97381.69;10327065;28;20081;-48
2023/01/31 10:30:32;;;;;;;15.32;10.90;;;;;;;5.62;55.85;97383.75;10304567;28;20073;-50
2023/01/31 10:35:42;;;;;;;13.27;10.43;;;;;;;5.81;57.09;97378.81;10321609;28;20091;-48
2023/01/31 10:40:45;;;;;;;21.40;13.48;;;;;;;5.88;54.77;97372.91;10329625;28;20057;-47
2023/01/31 10:45:44;;;;;;;20.52;11.98;;;;;;;5.74;54.85;97331.53;10329579;28;20464;-48
2023/01/31 10:51:34;;;;;;;13.60;9.25;;;;;;;5.81;53.15;97363.38;10323058;28;20576;-48
2023/01/31 10:56:36;;;;;;;6.20;5.10;;;;;;;5.55;52.18;97343.34;10322138;28;20065;-48
2023/01/31 11:01:36;;;;;;;9.88;6.30;;;;;;;5.44;52.57;97362.91;10316593;28;20119;-47
2023/01/31 11:06:35;;;;;;;11.23;6.60;;;;;;;5.36;53.02;97362.81;10330917;28;20072;-48
2023/01/31 11:11:52;;;;;;;12.73;7.75;;;;;;;5.29;53.66;97358.44;10322279;28;20496;-49
2023/01/31 11:17:20;;;;;;;10.00;6.65;;;;;;;5.21;53.02;97308.63;10326669;28;20069;-47
2023/01/31 11:22:26;;;;;;;36.42;24.92;;;;;;;5.78;53.11;97350.47;10327444;28;20076;-48
2023/01/31 11:27:46;;;;;;;52.50;36.60;;;;;;;5.08;52.13;97321.28;10328372;28;20472;-49
2023/01/31 11:32:47;;;;;;;9.85;6.72;;;;;;;5.42;52.41;97354.34;10327461;28;20516;-47
2023/01/31 11:37:53;;;;;;;7.30;4.88;;;;;;;4.91;51.59;97366.47;10326978;28;20597;-49
2023/01/31 11:42:58;;;;;;;6.47;3.90;;;;;;;4.33;52.37;97366.38;10325243;28;20080;-47
2023/01/31 11:48:07;;;;;;;4.00;2.63;;;;;;;3.81;53.94;97363.72;10328247;28;20084;-47
2023/01/31 11:53:19;;;;;;;2.95;2.10;;;;;;;3.32;56.06;97377.25;10326813;28;20084;-48
2023/01/31 11:58:35;;;;;;;6.65;4.10;;;;;;;3.23;57.86;97375.38;10326824;28;20083;-47
2023/01/31 12:03:36;;;;;;;5.07;3.50;;;;;;;3.20;57.84;97378.72;10326564;28;20237;-47
2023/01/31 12:08:40;;;;;;;11.18;5.85;;;;;;;3.32;57.83;97379.81;10326508;28;20469;-48
2023/01/31 12:14:08;;;;;;;14.70;7.88;;;;;;;3.45;56.91;97356.19;10325954;28;20088;-47
2023/01/31 12:19:13;;;;;;;12.10;6.88;;;;;;;3.90;56.20;97375.03;10326464;28;20493;-48
2023/01/31 12:24:43;;;;;;;9.65;5.82;;;;;;;4.56;55.22;97361.63;10324042;28;20089;-47
2023/01/31 12:30:04;;;;;;;11.73;7.45;;;;;;;5.04;54.44;97360.69;10326203;28;20087;-49
2023/01/31 12:35:41;;;;;;;12.05;7.50;;;;;;;5.42;54.27;97360.34;10326398;28;20083;-49
2023/01/31 12:40:49;;;;;;;18.00;10.13;;;;;;;5.63;53.59;97359.75;10326094;28;20076;-47
2023/01/31 12:45:57;;;;;;;10.27;6.45;;;;;;;5.26;52.45;97368.72;10326092;28;20080;-47
2023/01/31 12:51:34;;;;;;;10.80;5.60;;;;;;;4.76;54.28;97392.81;10326521;28;20076;-48
2023/01/31 12:57:01;;;;;;;5.10;3.30;;;;;;;4.38;56.50;97375.03;10324888;28;20587;-49
2023/01/31 13:02:21;;;;;;;6.97;4.40;;;;;;;4.49;56.53;97380.34;10290981;28;20069;-47
2023/01/31 13:07:29;;;;;;;5.57;3.63;;;;;;;4.68;56.70;97378.94;10323682;28;20481;-49
2023/01/31 13:12:33;;;;;;;9.98;5.20;;;;;;;4.54;57.17;97376.16;10325476;28;20500;-47
2023/01/31 13:17:38;;;;;;;7.78;4.22;;;;;;;4.44;57.47;97389.69;10308910;28;20076;-48
2023/01/31 13:22:45;;;;;;;5.70;4.25;;;;;;;4.47;57.83;97392.31;10326075;28;20084;-48
2023/01/31 13:28:08;;;;;;;24.83;11.23;;;;;;;4.44;56.64;97387.13;10322621;28;20580;-49
2023/01/31 13:33:51;;;;;;;74.32;42.28;;;;;;;4.43;57.97;97387.94;10311675;28;20093;-49
2023/01/31 13:38:51;;;;;;;99.07;44.15;;;;;;;4.25;57.36;97402.22;10311036;28;20088;-48
2023/01/31 13:43:50;;;;;;;19.73;11.27;;;;;;;4.01;57.42;97402.63;10334274;28;20081;-49
2023/01/31 13:48:51;;;;;;;17.73;9.00;;;;;;;4.30;57.71;97402.28;10334171;28;20061;-49
2023/01/31 13:54:14;;;;;;;7.70;5.53;;;;;;;4.21;56.38;97405.56;10332124;28;20069;-47
2023/01/31 13:59:21;;;;;;;21.48;12.20;;;;;;;4.43;56.67;97395.66;10333115;28;20069;-48
2023/01/31 14:04:24;;;;;;;13.57;8.23;;;;;;;4.72;55.93;97404.72;10333589;28;20910;-49
2023/01/31 14:10:03;;;;;;;18.33;9.57;;;;;;;5.06;56.08;97396.69;10333962;28;20060;-48
2023/01/31 14:15:41;;;;;;;11.68;6.97;;;;;;;4.98;54.02;97406.88;10331451;28;20081;-49
2023/01/31 14:20:40;;;;;;;15.15;10.50;;;;;;;5.24;54.54;97409.84;10332673;28;20140;-48
2023/01/31 14:25:40;;;;;;;22.75;15.05;;;;;;;5.39;55.59;97422.06;10331310;28;20040;-49
2023/01/31 14:30:42;;;;;;;45.40;28.08;;;;;;;5.46;57.59;97418.75;10332552;28;20085;-48
2023/01/31 14:36:29;;;;;;;51.03;30.58;;;;;;;5.58;56.93;97430.00;10330578;28;20073;-48
2023/01/31 14:42:05;;;;;;;46.85;30.73;;;;;;;5.65;55.78;97426.69;10314605;28;20568;-48
2023/01/31 14:47:19;;;;;;;52.35;34.67;;;;;;;5.57;55.19;97431.72;10331998;28;20069;-50
2023/01/31 14:52:21;;;;;;;52.20;31.60;;;;;;;5.58;57.40;97453.19;10331573;28;20783;-50
2023/01/31 14:57:30;;;;;;;39.53;26.17;;;;;;;5.49;57.52;97454.78;10330830;28;20071;-48
2023/01/31 15:02:32;;;;;;;32.65;19.85;;;;;;;5.29;59.08;97474.22;10330908;28;20524;-49
2023/01/31 15:07:31;;;;;;;31.70;17.48;;;;;;;4.87;55.05;97481.22;10331142;28;20080;-48
2023/01/31 15:12:58;;;;;;;15.55;8.32;;;;;;;4.10;55.26;97480.66;10331430;28;20064;-50
2023/01/31 15:18:01;;;;;;;17.75;9.48;;;;;;;3.75;57.21;97486.81;10330456;28;20103;-50
2023/01/31 15:23:04;;;;;;;14.98;8.18;;;;;;;3.59;58.08;97489.88;10331018;28;20472;-50
2023/01/31 15:28:06;;;;;;;13.70;8.63;;;;;;;3.65;58.54;97487.44;10330486;28;20516;-47
2023/01/31 15:33:21;;;;;;;13.27;9.45;;;;;;;3.63;58.77;97499.34;10330714;28;20080;-48
2023/01/31 15:38:34;;;;;;;20.60;12.45;;;;;;;3.55;59.32;97503.47;10322271;28;20496;-49
2023/01/31 15:43:37;;;;;;;25.75;16.23;;;;;;;3.80;59.27;97508.31;10329784;28;20069;-50
2023/01/31 15:48:40;;;;;;;23.65;14.68;;;;;;;3.76;59.29;97516.75;10327217;28;20069;-48
2023/01/31 15:53:41;;;;;;;25.70;15.35;;;;;;;3.95;59.97;97517.16;10330750;28;20080;-50
2023/01/31 15:58:46;;;;;;;14.13;9.80;;;;;;;4.09;59.96;97520.88;10326169;28;20121;-48
2023/01/31 16:04:03;;;;;;;37.38;21.98;;;;;;;4.07;61.20;97525.13;10329024;28;20083;-50
2023/01/31 16:09:05;;;;;;;49.45;28.45;;;;;;;4.09;61.68;97536.28;10330869;28;20501;-49
2023/01/31 16:14:06;;;;;;;75.80;46.00;;;;;;;4.08;62.73;97544.84;10327846;28;20069;-50
2023/01/31 16:19:05;;;;;;;50.78;33.67;;;;;;;2.61;63.62;97293.69;10329137;28;20564;-48
2023/01/31 16:24:10;;;;;;;44.65;30.45;;;;;;;3.98;64.74;97560.84;10327843;28;20077;-48
2023/01/31 16:29:14;;;;;;;40.70;26.00;;;;;;;3.86;64.23;97557.19;10324044;28;20467;-48
2023/01/31 16:34:37;;;;;;;40.03;27.13;;;;;;;3.78;64.39;97553.59;10327625;28;20073;-48
2023/01/31 16:39:46;;;;;;;40.95;26.23;;;;;;;3.80;64.50;97569.91;10327764;28;20782;-49
2023/01/31 16:44:46;;;;;;;46.97;29.93;;;;;;;3.83;64.91;97584.50;10327072;28;20072;-48
2023/01/31 16:49:48;;;;;;;46.25;29.45;;;;;;;3.82;65.40;97583.63;10328484;28;20299;-45
2023/01/31 16:54:52;;;;;;;43.78;28.90;;;;;;;3.79;65.57;97580.13;10328086;28;20088;-45
2023/01/31 16:59:52;;;;;;;57.42;35.17;;;;;;;3.68;65.81;97592.69;10323950;28;20116;-49
2023/01/31 17:04:55;;;;;;;51.03;32.45;;;;;;;3.65;65.72;97590.06;10327598;28;20667;-48
2023/01/31 17:09:57;;;;;;;53.03;32.78;;;;;;;3.64;66.11;97593.47;10328004;28;20060;-49
2023/01/31 17:14:57;;;;;;;59.78;36.55;;;;;;;3.57;66.43;97586.47;10332037;28;20065;-48
2023/01/31 17:19:56;;;;;;;50.42;31.98;;;;;;;3.57;66.96;97599.28;10330046;28;20075;-47
2023/01/31 17:24:55;;;;;;;47.97;30.10;;;;;;;3.49;67.67;97593.97;10327153;28;20128;-48
2023/01/31 17:29:54;;;;;;;;;;;;;;;3.37;67.57;97601.34;10330364;28;20543;-48
2023/01/31 17:34:52;;;;;;;35.33;24.35;;;;;;;3.27;67.77;97597.69;10329714;28;19913;-49
2023/01/31 17:39:51;;;;;;;47.42;27.70;;;;;;;3.18;68.12;97606.03;10331290;28;20039;-47
2023/01/31 17:44:50;;;;;;;73.93;40.15;;;;;;;3.18;68.92;97606.03;10331926;28;20037;-50
2023/01/31 17:49:49;;;;;;;50.33;28.25;;;;;;;3.10;69.03;97609.25;10331503;28;20039;-47
2023/01/31 17:54:48;;;;;;;179.80;96.88;;;;;;;2.91;69.75;97571.97;10331018;28;20511;-48
2023/01/31 17:59:47;;;;;;;;;;;;;;;3.04;69.98;97633.00;10332050;28;20077;-50
2023/01/31 18:04:46;;;;;;;44.10;30.30;;;;;;;2.98;70.34;97633.72;10331362;28;19943;-47
2023/01/31 18:09:45;;;;;;;29.65;19.80;;;;;;;2.95;70.12;97631.06;10328091;28;20108;-48
2023/01/31 18:14:44;;;;;;;19.35;12.32;;;;;;;2.72;70.43;97633.00;10331414;28;20046;-48
2023/01/31 18:19:43;;;;;;;26.55;19.27;;;;;;;2.81;70.80;97652.88;10330099;28;20025;-48
2023/01/31 18:24:43;;;;;;;30.88;21.40;;;;;;;2.91;70.38;97657.44;10328899;28;20055;-49
2023/01/31 18:29:42;;;;;;;51.80;34.42;;;;;;;2.99;69.55;97653.38;10329400;28;20088;-47
2023/01/31 18:34:41;;;;;;;46.00;30.35;;;;;;;3.03;69.88;97662.03;10328941;28;20033;-49
2023/01/31 18:39:40;;;;;;;43.00;27.17;;;;;;;3.08;69.95;97668.16;10327855;28;20037;-47
2023/01/31 18:44:39;;;;;;;43.47;29.30;;;;;;;3.04;69.87;97675.72;10329068;28;20112;-48
2023/01/31 18:49:38;;;;;;;58.13;35.53;;;;;;;2.89;70.66;97679.59;10326505;28;20046;-49
2023/01/31 18:54:37;;;;;;;58.95;36.25;;;;;;;2.87;70.85;97683.81;10328454;28;20069;-48
2023/01/31 18:59:36;;;;;;;44.28;26.73;;;;;;;2.91;70.62;97685.63;10329683;28;20084;-48
2023/01/31 19:04:35;;;;;;;67.88;41.67;;;;;;;2.98;70.87;97689.22;10329470;28;20050;-49
2023/01/31 19:09:34;;;;;;;66.25;39.97;;;;;;;2.80;70.95;97693.00;10327744;28;20072;-49
2023/01/31 19:14:33;;;;;;;55.33;34.22;;;;;;;2.59;71.08;97694.97;10328605;28;20075;-48
2023/01/31 19:19:33;;;;;;;70.30;43.08;;;;;;;2.61;71.46;97697.59;10328553;28;20045;-49
2023/01/31 19:24:32;;;;;;;86.13;52.53;;;;;;;2.64;72.32;97690.84;10328028;28;20077;-48
2023/01/31 19:29:31;;;;;;;76.03;47.40;;;;;;;2.78;71.65;97696.34;10327501;28;20128;-47
2023/01/31 19:34:30;;;;;;;82.72;50.28;;;;;;;2.87;71.95;97706.00;10324131;28;20120;-48
2023/01/31 19:39:29;;;;;;;78.68;47.85;;;;;;;2.92;71.60;97707.00;10325824;28;20045;-48
2023/01/31 19:44:28;;;;;;;72.80;45.40;;;;;;;2.98;71.86;97710.63;10327687;28;20456;-48
2023/01/31 19:49:27;;;;;;;75.72;47.15;;;;;;;2.96;71.46;97709.69;10327019;28;20033;-48
2023/01/31 19:54:26;;;;;;;78.85;46.40;;;;;;;2.97;71.17;97716.56;10326468;28;20103;-47
2023/01/31 19:59:25;;;;;;;67.80;40.60;;;;;;;2.95;71.03;97723.31;10325860;28;20040;-50
2023/01/31 20:04:23;;;;;;;51.90;30.98;;;;;;;2.92;71.21;97728.38;10326256;28;20048;-50
2023/01/31 20:09:22;;;;;;;40.53;25.15;;;;;;;2.90;71.39;97730.03;10327116;28;20479;-48
2023/01/31 20:14:21;;;;;;;29.35;19.70;;;;;;;2.86;71.56;97735.88;10323462;28;20044;-50
2023/01/31 20:19:21;;;;;;;33.50;20.60;;;;;;;2.86;71.47;97748.69;10326272;28;20045;-48
2023/01/31 20:24:20;;;;;;;30.15;18.17;;;;;;;2.35;71.46;97674.63;10311826;28;20076;-49
2023/01/31 20:29:19;;;;;;;133.68;67.88;;;;;;;2.79;72.37;97742.53;10325723;28;20152;-48
2023/01/31 20:34:18;;;;;;;86.00;46.90;;;;;;;2.89;71.71;97753.06;10325971;28;20036;-48
2023/01/31 20:39:17;;;;;;;66.35;37.05;;;;;;;2.74;71.32;97727.84;10324733;28;20041;-48
2023/01/31 20:44:16;;;;;;;59.90;34.50;;;;;;;2.90;71.40;97755.66;10324296;28;20033;-49
2023/01/31 20:49:15;;;;;;;32.08;19.58;;;;;;;2.96;70.95;97749.84;10332774;28;20543;-48
2023/01/31 20:54:14;;;;;;;26.02;16.38;;;;;;;2.84;70.04;97745.25;10332633;28;20057;-48
2023/01/31 20:59:13;;;;;;;67.90;39.83;;;;;;;2.88;70.12;97754.72;10329169;28;20132;-47
2023/01/31 21:04:13;;;;;;;86.30;47.67;;;;;;;2.91;70.50;97761.63;10333432;28;20501;-48
2023/01/31 21:09:12;;;;;;;96.15;49.35;;;;;;;2.95;70.21;97759.22;10332190;28;20064;-48
2023/01/31 21:14:11;;;;;;;61.75;34.85;;;;;;;3.06;69.84;97756.97;10338241;28;20036;-47
2023/01/31 21:19:10;;;;;;;45.33;27.25;;;;;;;2.96;70.31;97755.84;10331058;28;20120;-49
2023/01/31 21:24:09;;;;;;;38.97;21.75;;;;;;;2.75;70.50;97760.34;10332710;28;20112;-48
2023/01/31 21:29:08;;;;;;;19.67;12.30;;;;;;;2.66;70.73;97775.44;10341950;28;20523;-49
2023/01/31 21:34:07;;;;;;;24.75;15.57;;;;;;;2.70;71.38;97773.00;10334704;28;20401;-48
2023/01/31 21:39:06;;;;;;;;;;;;;;;2.81;70.85;97781.00;10332112;28;20071;-48
2023/01/31 21:44:05;;;;;;;20.48;13.07;;;;;;;2.86;71.06;97769.19;10330535;28;19917;-48
2023/01/31 21:49:04;;;;;;;48.83;31.00;;;;;;;2.92;70.97;97783.91;10332585;28;20068;-47
2023/01/31 21:54:03;;;;;;;46.38;25.00;;;;;;;2.94;70.00;97783.13;10329967;28;20071;-47
2023/01/31 21:59:02;;;;;;;31.58;17.67;;;;;;;2.53;69.86;97711.00;10328104;28;20176;-48
2023/01/31 22:04:02;;;;;;;28.90;16.55;;;;;;;2.99;68.98;97786.69;10331254;28;20065;-48
2023/01/31 22:09:02;;;;;;;27.30;16.60;;;;;;;3.07;69.55;97784.31;10329243;28;20590;-49
2023/01/31 22:14:03;;;;;;;35.90;21.15;;;;;;;3.07;69.00;97789.47;10329658;28;20071;-48
2023/01/31 22:19:02;;;;;;;40.67;25.38;;;;;;;2.43;68.88;97675.72;10330819;28;20505;-49
2023/01/31 22:24:02;;;;;;;;;;;;;;;3.13;69.02;97788.78;10328699;28;20067;-48
2023/01/31 22:29:04;;;;;;;88.60;49.40;;;;;;;3.15;68.04;97799.97;10330516;28;19979;-48
2023/01/31 22:34:04;;;;;;;56.33;33.25;;;;;;;3.01;68.58;97787.59;10330427;28;20056;-48
2023/01/31 22:39:04;;;;;;;45.55;28.58;;;;;;;2.91;68.14;97785.59;10329950;28;20072;-49
2023/01/31 22:44:03;;;;;;;33.00;19.23;;;;;;;2.80;68.30;97789.53;10329154;28;20061;-48
2023/01/31 22:49:02;;;;;;;75.03;44.30;;;;;;;2.65;68.80;97789.06;10329491;28;20487;-49
2023/01/31 22:54:01;;;;;;;70.78;43.88;;;;;;;2.61;69.30;97795.78;10328999;28;20413;-48
2023/01/31 22:59:02;;;;;;;79.63;48.58;;;;;;;2.62;70.16;97794.09;10329438;28;20040;-47
2023/01/31 23:04:03;;;;;;;80.35;48.92;;;;;;;2.40;69.92;97766.97;10328845;28;20072;-47
2023/01/31 23:09:02;;;;;;;83.38;48.08;;;;;;;2.50;70.91;97789.47;10325606;28;20065;-50
2023/01/31 23:14:01;;;;;;;70.93;41.17;;;;;;;2.50;70.81;97792.03;10326215;28;20069;-50
2023/01/31 23:19:00;;;;;;;77.18;44.97;;;;;;;2.38;70.71;97793.38;10331888;28;20067;-48
2023/01/31 23:23:59;;;;;;;89.22;46.92;;;;;;;2.23;71.42;97792.00;10330139;28;20559;-47
2023/01/31 23:28:58;;;;;;;89.90;42.78;;;;;;;2.15;71.25;97800.31;10330813;28;20540;-50
2023/01/31 23:33:59;;;;;;;50.03;27.08;;;;;;;2.10;70.78;97791.63;10330652;28;20195;-48
2023/01/31 23:38:59;;;;;;;44.10;23.38;;;;;;;2.09;70.21;97795.00;10330788;28;20068;-48